createdAt,value
2023-09-04T00:02:53.551Z,6.10
2023-09-04T00:13:46.717Z,6.70
2023-09-04T00:24:47.955Z,5.10
2023-09-04T00:35:31.915Z,5.20
2023-09-04T00:46:38.024Z,5.40
2023-09-04T00:57:36.463Z,4.70
2023-09-04T01:08:13.991Z,5.40
2023-09-04T01:19:07.837Z,5.00
2023-09-04T01:29:55.176Z,5.30
2023-09-04T01:40:44.141Z,4.40
2023-09-04T01:51:20.888Z,4.70
2023-09-04T02:01:25.255Z,4.20
2023-09-04T02:12:13.213Z,4.50
2023-09-04T02:23:00.718Z,3.50
2023-09-04T02:33:48.665Z,4.60
2023-09-04T02:44:17.825Z,3.80
2023-09-04T02:54:59.097Z,3.60
2023-09-04T03:05:37.596Z,3.50
2023-09-04T03:16:47.851Z,4.70
2023-09-04T03:27:39.677Z,4.10
2023-09-04T03:38:26.540Z,5.30
2023-09-04T03:48:42.595Z,5.00
2023-09-04T03:59:09.320Z,4.10
2023-09-04T04:09:50.590Z,3.80
2023-09-04T04:21:06.328Z,4.60
2023-09-04T04:31:53.185Z,5.00
2023-09-04T04:42:39.928Z,4.80
2023-09-04T04:53:27.671Z,6.90
2023-09-04T05:04:00.495Z,7.10
2023-09-04T05:15:06.457Z,8.50
2023-09-04T05:26:15.215Z,8.40
2023-09-04T05:37:04.152Z,7.50
2023-09-04T05:47:08.294Z,8.00
2023-09-04T05:57:35.289Z,8.30
2023-09-04T06:07:39.542Z,8.50
2023-09-04T06:18:26.107Z,9.10
2023-09-04T06:29:21.550Z,11.10
2023-09-04T06:40:05.781Z,12.10
2023-09-04T06:50:38.793Z,8.30
2023-09-04T07:00:54.970Z,7.90
2023-09-04T07:11:59.064Z,8.40
2023-09-04T07:22:20.834Z,6.80
2023-09-04T07:32:46.437Z,8.30
2023-09-04T07:43:02.366Z,7.50
2023-09-04T07:53:49.379Z,7.50
2023-09-04T08:03:55.456Z,6.10
2023-09-04T08:14:00.190Z,5.40
2023-09-04T08:24:04.261Z,5.50
2023-09-04T08:34:28.244Z,5.10
2023-09-04T08:44:40.226Z,4.90
2023-09-04T08:54:48.749Z,5.00
2023-09-04T09:04:53.473Z,4.70
2023-09-04T09:15:01.293Z,4.90
2023-09-04T09:25:08.477Z,4.80
2023-09-04T09:35:20.474Z,4.80
2023-09-04T09:45:33.085Z,4.60
2023-09-04T09:55:37.041Z,4.20
2023-09-04T10:05:44.512Z,4.20
2023-09-04T10:15:52.766Z,4.30
2023-09-04T10:26:08.837Z,3.60
2023-09-04T10:36:13.746Z,3.50
2023-09-04T10:46:18.492Z,3.70
2023-09-04T10:56:23.781Z,2.90
2023-09-04T11:06:28.124Z,4.20
2023-09-04T11:16:50.418Z,4.10
2023-09-04T11:26:54.563Z,3.50
2023-09-04T11:36:58.336Z,3.30
2023-09-04T11:47:02.643Z,3.60
2023-09-04T11:57:16.395Z,2.90
2023-09-04T12:07:20.667Z,3.50
2023-09-04T12:17:24.322Z,3.40
2023-09-04T12:27:31.477Z,3.00
2023-09-04T12:37:36.412Z,2.90
2023-09-04T12:48:14.277Z,3.00
2023-09-04T13:08:33.850Z,2.90
2023-09-04T13:18:39.426Z,2.60
2023-09-04T13:29:03.782Z,2.90
2023-09-04T13:39:08.683Z,3.70
2023-09-04T13:49:12.768Z,3.40
2023-09-04T14:09:23.019Z,3.90
2023-09-04T14:19:27.142Z,3.40
2023-09-04T14:29:31.206Z,4.10
2023-09-04T14:39:35.579Z,4.50
2023-09-04T14:49:39.647Z,4.40
2023-09-04T14:59:44.051Z,5.20
2023-09-04T15:09:59.081Z,6.00
2023-09-04T15:20:02.898Z,5.50
2023-09-04T15:30:09.025Z,5.50
2023-09-04T15:40:14.172Z,6.00
2023-09-04T15:50:17.925Z,5.70
2023-09-04T16:00:22.321Z,5.50
2023-09-04T16:10:26.502Z,5.70
2023-09-04T16:20:44.650Z,6.10
2023-09-04T16:30:57.763Z,6.50
2023-09-04T16:41:02.156Z,6.70
2023-09-04T16:51:07.065Z,7.20
2023-09-04T17:01:22.109Z,7.10
2023-09-04T17:11:31.441Z,7.80
2023-09-04T17:21:37.489Z,6.80
2023-09-04T17:31:55.194Z,7.80
2023-09-04T17:41:59.643Z,7.30
2023-09-04T17:52:16.961Z,8.10
2023-09-04T18:02:21.427Z,8.00
2023-09-04T18:12:36.680Z,9.80
2023-09-04T18:22:48.001Z,11.60
2023-09-04T18:33:32.169Z,13.80
2023-09-04T18:43:39.814Z,10.40
2023-09-04T18:54:19.095Z,18.30
2023-09-04T19:04:27.250Z,14.50
2023-09-04T19:14:52.166Z,13.00
2023-09-04T19:25:06.787Z,12.60
2023-09-04T19:35:15.562Z,13.20
2023-09-04T19:45:31.358Z,10.20
2023-09-04T19:55:52.215Z,9.50
2023-09-04T20:16:41.423Z,8.40
2023-09-04T20:26:52.761Z,7.60
2023-09-04T20:37:33.741Z,8.20
2023-09-04T20:48:48.476Z,8.10
